Andover, OH (44003)

10:25 AM EDT on August 30, 2015 (GMT -0400)
Roaming Shores - Beach 2 Cove | | Change Station
CLOSE
Current Station
Personal Weather Station
Location: Roaming Shores, OH
Elevation: 883 ft
Nearby Weather Stations

Elev 883 ft 41.63 °N, 80.82 °W | Updated 24 seconds ago

Overcast
Overcast
71.6 °F
Feels Like 71.6 °F
N
0.0
Wind Variable Wind from South
Gusts 0.0 mph

Today
High -- | Low -- °F
--% Chance of Precip.
Yesterday
High -- | Low -- °F
Precip. -- in
6:46 AM 7:59 PM
Full, 99% visible
Pressure 30.11 in
Visibility 7.0 miles
Clouds Scattered Clouds 500 ft
Mostly Cloudy 11000 ft
Dew Point 69 °F
Humidity 92%
Rainfall 0.00 in
Snow Depth Not available.
UV 2 out of 12
Pollen 9.10 out of 12
Air Quality Not available.
Flu Activity Not available.
METAR KHZY 301353Z AUTO 20005KT 7SM SCT005 BKN110 21/20 A3012 RMK AO2 SLP195 T02060200
Pressure 30.11 in
Visibility 7.0 miles
Clouds Scattered Clouds 500 ft
Mostly Cloudy 11000 ft
Dew Point 69 °F
Humidity 92%
Rainfall 0.00 in
Snow Depth Not available.
UV 2 out of 12
Pollen 9.10 out of 12
Air Quality Not available.
Flu Activity Not available.
METAR KHZY 301353Z AUTO 20005KT 7SM SCT005 BKN110 21/20 A3012 RMK AO2 SLP195 T02060200

10-Day Weather Forecast

×

Almanac

Astronomy

Aug. 30, 2015 Rise Set
Actual Time
Civil Twilight
Nautical Twilight
Astronomical Twilight
Moon
Length of Visible Light
Length of Day
Tomorrow will be .
, % of the Moon is Illuminated

Today's Extremes

State Highs State Lows

Community

WunderPhotos

Upload Photos

1,850,974 photos uploaded!

WunderBlogs® & News

Nearby

Air Quality

  Air Quality AQ Index Pollutant
Not available.

Snow Depth

Station Depth Elevation

Earthquake Activity

City Distance Mag. Time & Date
Minimum magnitude displayed is 2.5.

Coastal Water Temperatures

Place Temperature

Stations

Nearby Weather Stations

Station Location Temp. Windchill Dew Point Humidity Wind Precip. Elev Updated Type